Hauptseite
METAR-TAF:

METAR-TAF

Flughäfen :

Kinloss Barracks

Kinloss, Schottland

Breite: 57-39N, Länge: 003-34W, Höhe: 7 m

Beobachtung

Neuester Wetterbericht von vor 1 Stunde und 19 Minuten, um 00:50 UTC
Wind 4 kt aus Nordost
Temperatur 9°C
Luftfeuchtigkeit 93%
Luftdruck 1032 hPa
Sichtweite: 6000 m
feuchter Dunst

METAR: EGQK 260050Z AUTO 04004KT 6000 BR OVC003/// 09/08 Q1032

Zeit: 03:09 (02:09 UTC)


TAF: fehlend

Wetterbeobachtungen und Prognosen von mehr als 4000 Flughäfen (METAR und TAF Bericht).

Die verfügbaren Stationen werden durch gelbe und rote Markierungen auf der Karte dargestellt.

Führen Sie die Maus auf sie, um den Namen der Station zu sehen.

Darauf klicken, um die Beobachtung von Wetterbeobachtungen und Prognosen zu sehen.

Um die Karte zu ändern : klicken Sie auf den grünen Tasten mit einem schwarzen Kreuz Zum Vergrößern, auf den grünen Button mit einem Gedankenstrich zu verkleinern, oder auf die grünen Pfeile für benachbarte Karten.


METAR-TAF: